sensor_id;sensor_type;location;lat;lon;timestamp;P1;durP1;ratioP1;P2;durP2;ratioP2
9465;SDS011;4771;48.726;9.006;2023-05-29T00:02:13;5.65;;;3.60;;
9465;SDS011;4771;48.726;9.006;2023-05-29T00:04:40;6.38;;;4.03;;
9465;SDS011;4771;48.726;9.006;2023-05-29T00:07:07;7.47;;;3.97;;
9465;SDS011;4771;48.726;9.006;2023-05-29T00:09:34;5.72;;;3.63;;
9465;SDS011;4771;48.726;9.006;2023-05-29T00:12:02;9.00;;;3.55;;
9465;SDS011;4771;48.726;9.006;2023-05-29T00:14:30;6.65;;;4.00;;
9465;SDS011;4771;48.726;9.006;2023-05-29T00:16:57;7.10;;;3.70;;
9465;SDS011;4771;48.726;9.006;2023-05-29T00:19:24;5.28;;;3.50;;
9465;SDS011;4771;48.726;9.006;2023-05-29T00:21:52;6.80;;;3.47;;
9465;SDS011;4771;48.726;9.006;2023-05-29T00:24:19;6.75;;;3.65;;
9465;SDS011;4771;48.726;9.006;2023-05-29T00:26:45;7.80;;;4.05;;
9465;SDS011;4771;48.726;9.006;2023-05-29T00:29:14;7.22;;;3.95;;
9465;SDS011;4771;48.726;9.006;2023-05-29T00:31:41;6.80;;;3.90;;
9465;SDS011;4771;48.726;9.006;2023-05-29T00:34:08;7.13;;;4.00;;
9465;SDS011;4771;48.726;9.006;2023-05-29T00:36:35;6.43;;;3.70;;
9465;SDS011;4771;48.726;9.006;2023-05-29T00:39:02;8.65;;;3.50;;
9465;SDS011;4771;48.726;9.006;2023-05-29T00:41:29;8.30;;;4.22;;
9465;SDS011;4771;48.726;9.006;2023-05-29T00:43:56;7.47;;;3.47;;
9465;SDS011;4771;48.726;9.006;2023-05-29T00:46:24;5.57;;;3.60;;
9465;SDS011;4771;48.726;9.006;2023-05-29T00:48:51;6.38;;;3.60;;
9465;SDS011;4771;48.726;9.006;2023-05-29T00:51:18;6.10;;;3.53;;
9465;SDS011;4771;48.726;9.006;2023-05-29T00:53:45;6.03;;;3.70;;
9465;SDS011;4771;48.726;9.006;2023-05-29T00:56:14;5.35;;;3.97;;
9465;SDS011;4771;48.726;9.006;2023-05-29T00:58:42;5.68;;;3.85;;
9465;SDS011;4771;48.726;9.006;2023-05-29T01:01:09;7.22;;;3.85;;
9465;SDS011;4771;48.726;9.006;2023-05-29T01:03:38;7.13;;;3.80;;
9465;SDS011;4771;48.726;9.006;2023-05-29T01:06:06;5.97;;;3.85;;
9465;SDS011;4771;48.726;9.006;2023-05-29T01:08:35;6.70;;;4.00;;
9465;SDS011;4771;48.726;9.006;2023-05-29T01:11:05;5.97;;;3.58;;
9465;SDS011;4771;48.726;9.006;2023-05-29T01:13:47;6.35;;;3.88;;
9465;SDS011;4771;48.726;9.006;2023-05-29T01:16:16;6.85;;;4.03;;
9465;SDS011;4771;48.726;9.006;2023-05-29T01:18:54;6.45;;;4.10;;
9465;SDS011;4771;48.726;9.006;2023-05-29T01:21:27;8.90;;;4.10;;
9465;SDS011;4771;48.726;9.006;2023-05-29T01:24:13;6.75;;;3.80;;
9465;SDS011;4771;48.726;9.006;2023-05-29T01:26:48;6.50;;;4.60;;
9465;SDS011;4771;48.726;9.006;2023-05-29T01:29:18;7.15;;;4.22;;
9465;SDS011;4771;48.726;9.006;2023-05-29T01:31:48;8.13;;;4.07;;
9465;SDS011;4771;48.726;9.006;2023-05-29T01:34:15;6.07;;;3.92;;
9465;SDS011;4771;48.726;9.006;2023-05-29T01:36:42;6.22;;;3.88;;
9465;SDS011;4771;48.726;9.006;2023-05-29T01:39:11;7.40;;;3.97;;
9465;SDS011;4771;48.726;9.006;2023-05-29T01:41:38;6.25;;;4.05;;
9465;SDS011;4771;48.726;9.006;2023-05-29T01:44:08;7.30;;;3.90;;
9465;SDS011;4771;48.726;9.006;2023-05-29T01:46:35;6.53;;;4.18;;
9465;SDS011;4771;48.726;9.006;2023-05-29T01:49:03;6.38;;;3.83;;
9465;SDS011;4771;48.726;9.006;2023-05-29T01:51:31;6.65;;;3.95;;
9465;SDS011;4771;48.726;9.006;2023-05-29T01:53:58;6.25;;;3.92;;
9465;SDS011;4771;48.726;9.006;2023-05-29T01:56:26;4.85;;;3.60;;
9465;SDS011;4771;48.726;9.006;2023-05-29T01:58:54;6.65;;;4.07;;
9465;SDS011;4771;48.726;9.006;2023-05-29T02:01:22;5.38;;;3.85;;
9465;SDS011;4771;48.726;9.006;2023-05-29T02:03:50;7.57;;;4.57;;
9465;SDS011;4771;48.726;9.006;2023-05-29T02:06:17;5.40;;;3.95;;
9465;SDS011;4771;48.726;9.006;2023-05-29T02:08:44;7.65;;;3.67;;
9465;SDS011;4771;48.726;9.006;2023-05-29T02:11:10;7.20;;;3.90;;
9465;SDS011;4771;48.726;9.006;2023-05-29T02:13:37;6.60;;;4.10;;
9465;SDS011;4771;48.726;9.006;2023-05-29T02:16:04;5.47;;;4.32;;
9465;SDS011;4771;48.726;9.006;2023-05-29T02:18:33;5.85;;;4.28;;
9465;SDS011;4771;48.726;9.006;2023-05-29T02:21:00;6.80;;;4.30;;
9465;SDS011;4771;48.726;9.006;2023-05-29T02:23:27;6.43;;;3.95;;
9465;SDS011;4771;48.726;9.006;2023-05-29T02:25:54;7.60;;;4.25;;
9465;SDS011;4771;48.726;9.006;2023-05-29T02:28:21;10.68;;;4.70;;
9465;SDS011;4771;48.726;9.006;2023-05-29T02:30:48;7.80;;;4.20;;
9465;SDS011;4771;48.726;9.006;2023-05-29T02:33:15;7.70;;;4.45;;
9465;SDS011;4771;48.726;9.006;2023-05-29T02:35:43;8.35;;;4.63;;
9465;SDS011;4771;48.726;9.006;2023-05-29T02:38:10;6.00;;;4.32;;
9465;SDS011;4771;48.726;9.006;2023-05-29T02:40:37;6.65;;;3.75;;
9465;SDS011;4771;48.726;9.006;2023-05-29T02:43:04;7.93;;;4.45;;
9465;SDS011;4771;48.726;9.006;2023-05-29T02:45:31;6.35;;;4.40;;
9465;SDS011;4771;48.726;9.006;2023-05-29T02:47:58;6.72;;;4.35;;
9465;SDS011;4771;48.726;9.006;2023-05-29T02:50:25;7.68;;;4.32;;
9465;SDS011;4771;48.726;9.006;2023-05-29T02:52:54;7.18;;;3.80;;
9465;SDS011;4771;48.726;9.006;2023-05-29T02:55:21;7.00;;;4.50;;
9465;SDS011;4771;48.726;9.006;2023-05-29T02:57:48;8.48;;;4.65;;
9465;SDS011;4771;48.726;9.006;2023-05-29T03:00:18;6.53;;;3.75;;
9465;SDS011;4771;48.726;9.006;2023-05-29T03:02:45;6.13;;;4.18;;
9465;SDS011;4771;48.726;9.006;2023-05-29T03:05:13;6.15;;;4.30;;
9465;SDS011;4771;48.726;9.006;2023-05-29T03:07:39;6.55;;;4.30;;
9465;SDS011;4771;48.726;9.006;2023-05-29T03:10:08;7.35;;;4.22;;
9465;SDS011;4771;48.726;9.006;2023-05-29T03:12:35;6.10;;;4.50;;
9465;SDS011;4771;48.726;9.006;2023-05-29T03:15:03;6.72;;;4.15;;
9465;SDS011;4771;48.726;9.006;2023-05-29T03:17:30;7.63;;;4.40;;
9465;SDS011;4771;48.726;9.006;2023-05-29T03:19:57;7.60;;;4.55;;
9465;SDS011;4771;48.726;9.006;2023-05-29T03:22:24;6.70;;;4.55;;
9465;SDS011;4771;48.726;9.006;2023-05-29T03:24:51;6.32;;;4.25;;
9465;SDS011;4771;48.726;9.006;2023-05-29T03:27:19;6.40;;;4.43;;
9465;SDS011;4771;48.726;9.006;2023-05-29T03:29:46;10.05;;;4.43;;
9465;SDS011;4771;48.726;9.006;2023-05-29T03:32:12;6.90;;;4.68;;
9465;SDS011;4771;48.726;9.006;2023-05-29T03:34:39;5.63;;;4.20;;
9465;SDS011;4771;48.726;9.006;2023-05-29T03:37:07;6.63;;;4.38;;
9465;SDS011;4771;48.726;9.006;2023-05-29T03:39:34;8.60;;;4.60;;
9465;SDS011;4771;48.726;9.006;2023-05-29T03:42:00;5.07;;;3.88;;
9465;SDS011;4771;48.726;9.006;2023-05-29T03:44:29;6.65;;;3.85;;
9465;SDS011;4771;48.726;9.006;2023-05-29T03:46:56;10.02;;;4.30;;
9465;SDS011;4771;48.726;9.006;2023-05-29T03:49:23;8.30;;;4.45;;
9465;SDS011;4771;48.726;9.006;2023-05-29T03:51:50;6.78;;;4.03;;
9465;SDS011;4771;48.726;9.006;2023-05-29T03:54:16;6.15;;;4.18;;
9465;SDS011;4771;48.726;9.006;2023-05-29T03:56:43;7.13;;;4.32;;
9465;SDS011;4771;48.726;9.006;2023-05-29T03:59:10;6.53;;;4.38;;
9465;SDS011;4771;48.726;9.006;2023-05-29T04:01:39;8.23;;;4.13;;
9465;SDS011;4771;48.726;9.006;2023-05-29T04:04:06;8.85;;;4.30;;
9465;SDS011;4771;48.726;9.006;2023-05-29T04:06:32;5.78;;;3.72;;
9465;SDS011;4771;48.726;9.006;2023-05-29T04:09:03;7.25;;;4.32;;
9465;SDS011;4771;48.726;9.006;2023-05-29T04:11:31;6.60;;;3.97;;
9465;SDS011;4771;48.726;9.006;2023-05-29T04:13:59;6.50;;;3.85;;
9465;SDS011;4771;48.726;9.006;2023-05-29T04:16:26;5.78;;;4.05;;
9465;SDS011;4771;48.726;9.006;2023-05-29T04:18:55;6.75;;;4.30;;
9465;SDS011;4771;48.726;9.006;2023-05-29T04:21:22;6.97;;;3.95;;
9465;SDS011;4771;48.726;9.006;2023-05-29T04:23:48;6.07;;;3.92;;
9465;SDS011;4771;48.726;9.006;2023-05-29T04:26:15;8.15;;;4.10;;
9465;SDS011;4771;48.726;9.006;2023-05-29T04:28:42;6.40;;;4.38;;
9465;SDS011;4771;48.726;9.006;2023-05-29T04:31:09;7.35;;;3.80;;
9465;SDS011;4771;48.726;9.006;2023-05-29T04:33:39;7.07;;;4.43;;
9465;SDS011;4771;48.726;9.006;2023-05-29T04:36:07;7.45;;;4.03;;
9465;SDS011;4771;48.726;9.006;2023-05-29T04:38:36;5.97;;;4.28;;
9465;SDS011;4771;48.726;9.006;2023-05-29T04:41:02;8.00;;;4.28;;
9465;SDS011;4771;48.726;9.006;2023-05-29T04:43:29;6.60;;;4.32;;
9465;SDS011;4771;48.726;9.006;2023-05-29T04:45:56;6.13;;;4.18;;
9465;SDS011;4771;48.726;9.006;2023-05-29T04:48:25;9.10;;;4.28;;
9465;SDS011;4771;48.726;9.006;2023-05-29T04:50:51;8.60;;;4.45;;
9465;SDS011;4771;48.726;9.006;2023-05-29T04:53:20;8.90;;;4.15;;
9465;SDS011;4771;48.726;9.006;2023-05-29T04:55:48;7.28;;;4.20;;
9465;SDS011;4771;48.726;9.006;2023-05-29T04:58:16;6.72;;;4.40;;
9465;SDS011;4771;48.726;9.006;2023-05-29T05:00:42;8.98;;;4.68;;
9465;SDS011;4771;48.726;9.006;2023-05-29T05:03:09;7.55;;;4.82;;
9465;SDS011;4771;48.726;9.006;2023-05-29T05:05:36;7.80;;;4.43;;
9465;SDS011;4771;48.726;9.006;2023-05-29T05:08:03;6.68;;;4.57;;
9465;SDS011;4771;48.726;9.006;2023-05-29T05:10:32;6.07;;;4.40;;
9465;SDS011;4771;48.726;9.006;2023-05-29T05:12:58;8.55;;;4.53;;
9465;SDS011;4771;48.726;9.006;2023-05-29T05:15:27;6.53;;;4.18;;
9465;SDS011;4771;48.726;9.006;2023-05-29T05:17:54;7.60;;;4.78;;
9465;SDS011;4771;48.726;9.006;2023-05-29T05:20:21;7.75;;;4.55;;
9465;SDS011;4771;48.726;9.006;2023-05-29T05:22:48;6.40;;;4.50;;
9465;SDS011;4771;48.726;9.006;2023-05-29T05:25:15;7.57;;;5.00;;
9465;SDS011;4771;48.726;9.006;2023-05-29T05:27:43;5.95;;;4.53;;
9465;SDS011;4771;48.726;9.006;2023-05-29T05:30:10;6.88;;;4.50;;
9465;SDS011;4771;48.726;9.006;2023-05-29T05:32:38;7.88;;;4.88;;
9465;SDS011;4771;48.726;9.006;2023-05-29T05:35:05;5.93;;;4.45;;
9465;SDS011;4771;48.726;9.006;2023-05-29T05:37:33;9.93;;;4.68;;
9465;SDS011;4771;48.726;9.006;2023-05-29T05:40:00;6.75;;;4.53;;
9465;SDS011;4771;48.726;9.006;2023-05-29T05:42:27;7.35;;;4.30;;
9465;SDS011;4771;48.726;9.006;2023-05-29T05:44:56;7.20;;;4.10;;
9465;SDS011;4771;48.726;9.006;2023-05-29T05:47:22;7.38;;;4.25;;
9465;SDS011;4771;48.726;9.006;2023-05-29T05:49:49;6.95;;;4.22;;
9465;SDS011;4771;48.726;9.006;2023-05-29T05:52:17;5.82;;;4.07;;
9465;SDS011;4771;48.726;9.006;2023-05-29T05:54:44;7.53;;;3.90;;
9465;SDS011;4771;48.726;9.006;2023-05-29T05:57:11;6.35;;;4.20;;
9465;SDS011;4771;48.726;9.006;2023-05-29T05:59:38;9.18;;;4.45;;
9465;SDS011;4771;48.726;9.006;2023-05-29T06:02:06;8.30;;;4.30;;
9465;SDS011;4771;48.726;9.006;2023-05-29T06:04:33;8.52;;;4.38;;
9465;SDS011;4771;48.726;9.006;2023-05-29T06:07:00;6.97;;;4.90;;
9465;SDS011;4771;48.726;9.006;2023-05-29T06:09:27;9.20;;;4.82;;
9465;SDS011;4771;48.726;9.006;2023-05-29T06:11:54;7.15;;;4.32;;
9465;SDS011;4771;48.726;9.006;2023-05-29T06:14:21;7.95;;;4.40;;
9465;SDS011;4771;48.726;9.006;2023-05-29T06:16:48;5.55;;;4.38;;
9465;SDS011;4771;48.726;9.006;2023-05-29T06:19:17;8.50;;;4.80;;
9465;SDS011;4771;48.726;9.006;2023-05-29T06:21:44;8.05;;;5.03;;
9465;SDS011;4771;48.726;9.006;2023-05-29T06:24:11;8.15;;;3.95;;
9465;SDS011;4771;48.726;9.006;2023-05-29T06:26:38;6.53;;;3.85;;
9465;SDS011;4771;48.726;9.006;2023-05-29T06:29:06;8.23;;;4.90;;
9465;SDS011;4771;48.726;9.006;2023-05-29T06:31:33;8.23;;;4.60;;
9465;SDS011;4771;48.726;9.006;2023-05-29T06:34:00;6.18;;;4.63;;
9465;SDS011;4771;48.726;9.006;2023-05-29T06:36:28;8.32;;;4.25;;
9465;SDS011;4771;48.726;9.006;2023-05-29T06:38:57;10.23;;;4.05;;
9465;SDS011;4771;48.726;9.006;2023-05-29T06:41:24;8.18;;;3.67;;
9465;SDS011;4771;48.726;9.006;2023-05-29T06:43:51;7.20;;;4.35;;
9465;SDS011;4771;48.726;9.006;2023-05-29T06:46:18;7.60;;;4.80;;
9465;SDS011;4771;48.726;9.006;2023-05-29T06:48:45;5.93;;;3.88;;
9465;SDS011;4771;48.726;9.006;2023-05-29T06:51:12;6.70;;;4.13;;
9465;SDS011;4771;48.726;9.006;2023-05-29T06:53:40;6.57;;;4.03;;
9465;SDS011;4771;48.726;9.006;2023-05-29T06:56:07;5.53;;;4.10;;
9465;SDS011;4771;48.726;9.006;2023-05-29T06:58:34;8.80;;;6.20;;
9465;SDS011;4771;48.726;9.006;2023-05-29T07:01:01;8.63;;;5.47;;
9465;SDS011;4771;48.726;9.006;2023-05-29T07:03:28;8.35;;;4.22;;
9465;SDS011;4771;48.726;9.006;2023-05-29T07:05:55;9.52;;;4.20;;
9465;SDS011;4771;48.726;9.006;2023-05-29T07:08:22;13.50;;;9.02;;
9465;SDS011;4771;48.726;9.006;2023-05-29T07:10:50;13.73;;;8.68;;
9465;SDS011;4771;48.726;9.006;2023-05-29T07:13:17;9.98;;;6.35;;
9465;SDS011;4771;48.726;9.006;2023-05-29T07:15:44;6.32;;;3.90;;
9465;SDS011;4771;48.726;9.006;2023-05-29T07:18:11;8.23;;;3.80;;
9465;SDS011;4771;48.726;9.006;2023-05-29T07:20:37;8.23;;;3.97;;
9465;SDS011;4771;48.726;9.006;2023-05-29T07:23:05;7.68;;;4.18;;
9465;SDS011;4771;48.726;9.006;2023-05-29T07:25:31;5.15;;;4.18;;
9465;SDS011;4771;48.726;9.006;2023-05-29T07:28:00;8.40;;;4.53;;
9465;SDS011;4771;48.726;9.006;2023-05-29T07:30:26;10.85;;;7.32;;
9465;SDS011;4771;48.726;9.006;2023-05-29T07:32:53;7.13;;;5.28;;
9465;SDS011;4771;48.726;9.006;2023-05-29T07:35:20;8.40;;;4.50;;
9465;SDS011;4771;48.726;9.006;2023-05-29T07:37:47;9.95;;;4.05;;
9465;SDS011;4771;48.726;9.006;2023-05-29T07:40:16;6.10;;;4.32;;
9465;SDS011;4771;48.726;9.006;2023-05-29T07:42:43;5.80;;;3.90;;
9465;SDS011;4771;48.726;9.006;2023-05-29T07:45:11;6.07;;;4.03;;
9465;SDS011;4771;48.726;9.006;2023-05-29T07:47:38;7.30;;;3.78;;
9465;SDS011;4771;48.726;9.006;2023-05-29T07:50:05;6.78;;;3.97;;
9465;SDS011;4771;48.726;9.006;2023-05-29T07:52:33;4.65;;;3.50;;
9465;SDS011;4771;48.726;9.006;2023-05-29T07:55:00;8.70;;;4.13;;
9465;SDS011;4771;48.726;9.006;2023-05-29T07:57:27;9.52;;;4.40;;
9465;SDS011;4771;48.726;9.006;2023-05-29T07:59:54;6.13;;;4.13;;
9465;SDS011;4771;48.726;9.006;2023-05-29T08:02:22;8.15;;;3.60;;
9465;SDS011;4771;48.726;9.006;2023-05-29T08:04:49;5.68;;;3.83;;
9465;SDS011;4771;48.726;9.006;2023-05-29T08:07:16;6.72;;;3.88;;
9465;SDS011;4771;48.726;9.006;2023-05-29T08:09:43;7.55;;;4.82;;
9465;SDS011;4771;48.726;9.006;2023-05-29T08:12:09;6.13;;;3.80;;
9465;SDS011;4771;48.726;9.006;2023-05-29T08:14:36;6.57;;;4.03;;
9465;SDS011;4771;48.726;9.006;2023-05-29T08:17:03;8.25;;;4.30;;
9465;SDS011;4771;48.726;9.006;2023-05-29T08:19:32;7.60;;;4.50;;
9465;SDS011;4771;48.726;9.006;2023-05-29T08:22:00;5.07;;;3.80;;
9465;SDS011;4771;48.726;9.006;2023-05-29T08:24:27;6.60;;;4.75;;
9465;SDS011;4771;48.726;9.006;2023-05-29T08:26:54;8.40;;;3.80;;
9465;SDS011;4771;48.726;9.006;2023-05-29T08:29:20;6.40;;;4.00;;
9465;SDS011;4771;48.726;9.006;2023-05-29T08:31:48;7.18;;;3.63;;
9465;SDS011;4771;48.726;9.006;2023-05-29T08:34:14;9.27;;;4.30;;
9465;SDS011;4771;48.726;9.006;2023-05-29T08:36:43;5.78;;;4.10;;
9465;SDS011;4771;48.726;9.006;2023-05-29T08:39:10;7.85;;;4.18;;
9465;SDS011;4771;48.726;9.006;2023-05-29T08:41:38;5.88;;;4.40;;
9465;SDS011;4771;48.726;9.006;2023-05-29T08:44:11;7.75;;;3.53;;
9465;SDS011;4771;48.726;9.006;2023-05-29T08:46:40;7.70;;;3.67;;
9465;SDS011;4771;48.726;9.006;2023-05-29T08:49:07;7.43;;;3.92;;
9465;SDS011;4771;48.726;9.006;2023-05-29T08:51:36;6.30;;;3.83;;
9465;SDS011;4771;48.726;9.006;2023-05-29T08:54:05;4.50;;;3.30;;
9465;SDS011;4771;48.726;9.006;2023-05-29T08:56:32;6.68;;;4.32;;
9465;SDS011;4771;48.726;9.006;2023-05-29T08:59:00;7.95;;;3.85;;
9465;SDS011;4771;48.726;9.006;2023-05-29T09:01:28;5.65;;;3.72;;
9465;SDS011;4771;48.726;9.006;2023-05-29T09:03:56;7.32;;;3.83;;
9465;SDS011;4771;48.726;9.006;2023-05-29T09:06:23;5.60;;;3.70;;
9465;SDS011;4771;48.726;9.006;2023-05-29T09:08:50;5.25;;;3.80;;
9465;SDS011;4771;48.726;9.006;2023-05-29T09:11:19;6.43;;;3.85;;
9465;SDS011;4771;48.726;9.006;2023-05-29T09:13:46;6.78;;;4.57;;
9465;SDS011;4771;48.726;9.006;2023-05-29T09:16:14;8.18;;;4.10;;
9465;SDS011;4771;48.726;9.006;2023-05-29T09:18:42;8.32;;;4.57;;
9465;SDS011;4771;48.726;9.006;2023-05-29T09:21:13;11.70;;;4.53;;
9465;SDS011;4771;48.726;9.006;2023-05-29T09:23:52;7.43;;;4.40;;
9465;SDS011;4771;48.726;9.006;2023-05-29T09:26:21;8.93;;;3.88;;
9465;SDS011;4771;48.726;9.006;2023-05-29T09:28:49;6.88;;;3.92;;
9465;SDS011;4771;48.726;9.006;2023-05-29T09:31:16;6.50;;;4.10;;
9465;SDS011;4771;48.726;9.006;2023-05-29T09:33:48;8.57;;;4.00;;
9465;SDS011;4771;48.726;9.006;2023-05-29T09:36:19;5.43;;;3.50;;
9465;SDS011;4771;48.726;9.006;2023-05-29T09:38:47;6.05;;;4.00;;
9465;SDS011;4771;48.726;9.006;2023-05-29T09:41:19;8.68;;;4.30;;
9465;SDS011;4771;48.726;9.006;2023-05-29T09:43:48;6.30;;;3.83;;
9465;SDS011;4771;48.726;9.006;2023-05-29T09:46:16;7.22;;;4.43;;
9465;SDS011;4771;48.726;9.006;2023-05-29T09:48:43;7.40;;;3.95;;
9465;SDS011;4771;48.726;9.006;2023-05-29T09:51:18;5.78;;;4.20;;
9465;SDS011;4771;48.726;9.006;2023-05-29T09:53:48;7.03;;;4.18;;
9465;SDS011;4771;48.726;9.006;2023-05-29T09:56:16;7.25;;;4.25;;
9465;SDS011;4771;48.726;9.006;2023-05-29T09:58:45;7.20;;;4.57;;
9465;SDS011;4771;48.726;9.006;2023-05-29T10:01:13;6.93;;;3.75;;
9465;SDS011;4771;48.726;9.006;2023-05-29T10:03:41;5.80;;;3.65;;
9465;SDS011;4771;48.726;9.006;2023-05-29T10:06:09;7.65;;;3.88;;
9465;SDS011;4771;48.726;9.006;2023-05-29T10:08:39;5.15;;;4.00;;
9465;SDS011;4771;48.726;9.006;2023-05-29T10:11:14;6.53;;;4.00;;
9465;SDS011;4771;48.726;9.006;2023-05-29T10:13:46;5.95;;;3.88;;
9465;SDS011;4771;48.726;9.006;2023-05-29T10:16:16;7.60;;;3.85;;
9465;SDS011;4771;48.726;9.006;2023-05-29T10:18:47;5.93;;;4.10;;
9465;SDS011;4771;48.726;9.006;2023-05-29T10:21:19;7.78;;;4.13;;
9465;SDS011;4771;48.726;9.006;2023-05-29T10:23:48;5.82;;;3.70;;
9465;SDS011;4771;48.726;9.006;2023-05-29T10:26:18;6.80;;;4.15;;
9465;SDS011;4771;48.726;9.006;2023-05-29T10:28:49;6.53;;;4.15;;
9465;SDS011;4771;48.726;9.006;2023-05-29T10:31:24;6.13;;;3.55;;
9465;SDS011;4771;48.726;9.006;2023-05-29T10:34:00;7.80;;;3.90;;
9465;SDS011;4771;48.726;9.006;2023-05-29T10:36:37;7.78;;;3.95;;
9465;SDS011;4771;48.726;9.006;2023-05-29T10:39:07;6.90;;;3.80;;
9465;SDS011;4771;48.726;9.006;2023-05-29T10:41:34;6.53;;;3.95;;
9465;SDS011;4771;48.726;9.006;2023-05-29T10:47:05;7.05;;;3.60;;
9465;SDS011;4771;48.726;9.006;2023-05-29T10:49:33;6.30;;;3.92;;
9465;SDS011;4771;48.726;9.006;2023-05-29T10:52:00;6.97;;;3.92;;
9465;SDS011;4771;48.726;9.006;2023-05-29T10:54:31;9.20;;;3.90;;
9465;SDS011;4771;48.726;9.006;2023-05-29T11:47:58;5.57;;;3.38;;
9465;SDS011;4771;48.726;9.006;2023-05-29T11:50:26;6.95;;;3.90;;
9465;SDS011;4771;48.726;9.006;2023-05-29T11:52:55;4.97;;;3.35;;
9465;SDS011;4771;48.726;9.006;2023-05-29T11:55:22;4.20;;;3.20;;
9465;SDS011;4771;48.726;9.006;2023-05-29T11:57:50;5.75;;;3.35;;
9465;SDS011;4771;48.726;9.006;2023-05-29T12:00:21;3.88;;;3.00;;
9465;SDS011;4771;48.726;9.006;2023-05-29T12:02:49;6.35;;;3.30;;
9465;SDS011;4771;48.726;9.006;2023-05-29T12:05:21;6.38;;;3.45;;
9465;SDS011;4771;48.726;9.006;2023-05-29T12:07:49;6.40;;;3.53;;
9465;SDS011;4771;48.726;9.006;2023-05-29T12:10:17;9.45;;;3.58;;
9465;SDS011;4771;48.726;9.006;2023-05-29T12:12:48;5.57;;;3.00;;
9465;SDS011;4771;48.726;9.006;2023-05-29T12:15:16;5.10;;;3.47;;
9465;SDS011;4771;48.726;9.006;2023-05-29T12:17:44;5.65;;;3.10;;
9465;SDS011;4771;48.726;9.006;2023-05-29T12:20:12;6.15;;;3.10;;
9465;SDS011;4771;48.726;9.006;2023-05-29T12:22:41;5.55;;;3.05;;
9465;SDS011;4771;48.726;9.006;2023-05-29T12:25:09;4.20;;;2.92;;
9465;SDS011;4771;48.726;9.006;2023-05-29T12:27:39;5.13;;;3.53;;
9465;SDS011;4771;48.726;9.006;2023-05-29T12:30:08;5.22;;;3.10;;
9465;SDS011;4771;48.726;9.006;2023-05-29T12:32:37;5.55;;;3.03;;
9465;SDS011;4771;48.726;9.006;2023-05-29T12:35:15;7.55;;;3.40;;
9465;SDS011;4771;48.726;9.006;2023-05-29T12:37:46;4.38;;;3.08;;
9465;SDS011;4771;48.726;9.006;2023-05-29T12:40:14;3.90;;;2.72;;
9465;SDS011;4771;48.726;9.006;2023-05-29T12:42:42;4.47;;;3.17;;
9465;SDS011;4771;48.726;9.006;2023-05-29T12:45:09;4.80;;;2.83;;
9465;SDS011;4771;48.726;9.006;2023-05-29T12:47:37;4.32;;;3.00;;
9465;SDS011;4771;48.726;9.006;2023-05-29T12:50:04;7.07;;;3.30;;
9465;SDS011;4771;48.726;9.006;2023-05-29T12:52:48;6.63;;;3.38;;
9465;SDS011;4771;48.726;9.006;2023-05-29T12:55:19;6.55;;;3.17;;
9465;SDS011;4771;48.726;9.006;2023-05-29T12:57:46;5.38;;;3.17;;
9465;SDS011;4771;48.726;9.006;2023-05-29T13:00:13;5.32;;;3.30;;
9465;SDS011;4771;48.726;9.006;2023-05-29T13:02:41;6.22;;;2.75;;
9465;SDS011;4771;48.726;9.006;2023-05-29T13:05:08;7.70;;;3.38;;
9465;SDS011;4771;48.726;9.006;2023-05-29T13:07:35;6.28;;;3.13;;
9465;SDS011;4771;48.726;9.006;2023-05-29T13:10:04;4.45;;;3.00;;
9465;SDS011;4771;48.726;9.006;2023-05-29T13:12:31;3.83;;;2.90;;
9465;SDS011;4771;48.726;9.006;2023-05-29T13:14:58;6.18;;;2.67;;
9465;SDS011;4771;48.726;9.006;2023-05-29T13:17:25;4.07;;;2.80;;
9465;SDS011;4771;48.726;9.006;2023-05-29T13:19:52;3.85;;;3.08;;
9465;SDS011;4771;48.726;9.006;2023-05-29T13:22:18;3.97;;;2.97;;
9465;SDS011;4771;48.726;9.006;2023-05-29T13:24:46;5.88;;;3.30;;
9465;SDS011;4771;48.726;9.006;2023-05-29T13:27:14;4.38;;;3.05;;
9465;SDS011;4771;48.726;9.006;2023-05-29T13:29:41;5.40;;;2.97;;
9465;SDS011;4771;48.726;9.006;2023-05-29T13:32:08;8.25;;;3.00;;
9465;SDS011;4771;48.726;9.006;2023-05-29T13:34:35;5.55;;;3.00;;
9465;SDS011;4771;48.726;9.006;2023-05-29T13:37:02;5.72;;;2.95;;
9465;SDS011;4771;48.726;9.006;2023-05-29T13:39:29;3.45;;;3.13;;
9465;SDS011;4771;48.726;9.006;2023-05-29T13:41:56;3.80;;;3.10;;
9465;SDS011;4771;48.726;9.006;2023-05-29T13:44:27;4.18;;;2.55;;
9465;SDS011;4771;48.726;9.006;2023-05-29T13:46:57;7.15;;;3.42;;
9465;SDS011;4771;48.726;9.006;2023-05-29T13:49:25;5.38;;;3.00;;
9465;SDS011;4771;48.726;9.006;2023-05-29T13:51:52;4.68;;;3.20;;
9465;SDS011;4771;48.726;9.006;2023-05-29T13:54:19;7.35;;;2.78;;
9465;SDS011;4771;48.726;9.006;2023-05-29T13:56:47;5.00;;;3.35;;
9465;SDS011;4771;48.726;9.006;2023-05-29T13:59:14;3.42;;;3.13;;
9465;SDS011;4771;48.726;9.006;2023-05-29T14:01:42;6.43;;;2.75;;
9465;SDS011;4771;48.726;9.006;2023-05-29T14:04:11;3.47;;;2.45;;
9465;SDS011;4771;48.726;9.006;2023-05-29T14:06:38;3.70;;;2.88;;
9465;SDS011;4771;48.726;9.006;2023-05-29T14:09:05;5.18;;;2.80;;
9465;SDS011;4771;48.726;9.006;2023-05-29T14:11:34;4.57;;;2.97;;
9465;SDS011;4771;48.726;9.006;2023-05-29T14:14:04;4.00;;;2.83;;
9465;SDS011;4771;48.726;9.006;2023-05-29T14:16:31;3.90;;;2.80;;
9465;SDS011;4771;48.726;9.006;2023-05-29T14:19:00;4.15;;;3.15;;
9465;SDS011;4771;48.726;9.006;2023-05-29T14:21:29;3.92;;;2.72;;
9465;SDS011;4771;48.726;9.006;2023-05-29T14:23:56;7.25;;;2.95;;
9465;SDS011;4771;48.726;9.006;2023-05-29T14:26:23;5.47;;;3.28;;
9465;SDS011;4771;48.726;9.006;2023-05-29T14:28:51;4.28;;;3.22;;
9465;SDS011;4771;48.726;9.006;2023-05-29T14:31:17;6.22;;;3.08;;
9465;SDS011;4771;48.726;9.006;2023-05-29T14:33:44;4.38;;;3.10;;
9465;SDS011;4771;48.726;9.006;2023-05-29T14:36:13;3.17;;;2.85;;
9465;SDS011;4771;48.726;9.006;2023-05-29T14:38:40;3.53;;;2.80;;
9465;SDS011;4771;48.726;9.006;2023-05-29T14:41:08;3.75;;;3.03;;
9465;SDS011;4771;48.726;9.006;2023-05-29T14:43:37;4.88;;;3.00;;
9465;SDS011;4771;48.726;9.006;2023-05-29T14:46:04;3.90;;;3.03;;
9465;SDS011;4771;48.726;9.006;2023-05-29T14:48:31;6.30;;;3.15;;
9465;SDS011;4771;48.726;9.006;2023-05-29T14:50:58;5.65;;;3.00;;
9465;SDS011;4771;48.726;9.006;2023-05-29T14:53:26;3.33;;;2.92;;
9465;SDS011;4771;48.726;9.006;2023-05-29T14:55:53;5.47;;;3.25;;
9465;SDS011;4771;48.726;9.006;2023-05-29T14:58:21;4.55;;;3.38;;
9465;SDS011;4771;48.726;9.006;2023-05-29T15:00:47;7.30;;;3.40;;
9465;SDS011;4771;48.726;9.006;2023-05-29T15:03:14;5.93;;;2.90;;
9465;SDS011;4771;48.726;9.006;2023-05-29T15:05:41;6.60;;;3.03;;
9465;SDS011;4771;48.726;9.006;2023-05-29T15:08:08;4.45;;;2.90;;
9465;SDS011;4771;48.726;9.006;2023-05-29T15:10:36;4.32;;;3.03;;
9465;SDS011;4771;48.726;9.006;2023-05-29T15:13:03;3.63;;;2.90;;
9465;SDS011;4771;48.726;9.006;2023-05-29T15:15:32;4.72;;;2.80;;
9465;SDS011;4771;48.726;9.006;2023-05-29T15:17:59;4.50;;;3.05;;
9465;SDS011;4771;48.726;9.006;2023-05-29T15:20:26;4.03;;;2.67;;
9465;SDS011;4771;48.726;9.006;2023-05-29T15:22:53;3.80;;;3.22;;
9465;SDS011;4771;48.726;9.006;2023-05-29T15:25:20;3.88;;;3.38;;
9465;SDS011;4771;48.726;9.006;2023-05-29T15:27:49;4.18;;;3.10;;
9465;SDS011;4771;48.726;9.006;2023-05-29T15:30:17;6.05;;;3.90;;
9465;SDS011;4771;48.726;9.006;2023-05-29T15:32:45;4.80;;;3.10;;
9465;SDS011;4771;48.726;9.006;2023-05-29T15:35:13;7.72;;;3.10;;
9465;SDS011;4771;48.726;9.006;2023-05-29T15:37:41;5.47;;;2.78;;
9465;SDS011;4771;48.726;9.006;2023-05-29T15:40:09;3.00;;;2.60;;
9465;SDS011;4771;48.726;9.006;2023-05-29T15:42:36;3.90;;;2.55;;
9465;SDS011;4771;48.726;9.006;2023-05-29T15:45:05;4.95;;;2.85;;
9465;SDS011;4771;48.726;9.006;2023-05-29T15:47:32;5.53;;;2.85;;
9465;SDS011;4771;48.726;9.006;2023-05-29T15:49:59;7.30;;;3.20;;
9465;SDS011;4771;48.726;9.006;2023-05-29T15:52:26;4.85;;;2.90;;
9465;SDS011;4771;48.726;9.006;2023-05-29T15:54:53;4.15;;;3.08;;
9465;SDS011;4771;48.726;9.006;2023-05-29T15:57:28;6.68;;;3.05;;
9465;SDS011;4771;48.726;9.006;2023-05-29T15:59:54;9.05;;;4.20;;
9465;SDS011;4771;48.726;9.006;2023-05-29T16:02:23;7.97;;;3.88;;
9465;SDS011;4771;48.726;9.006;2023-05-29T16:04:49;6.05;;;3.28;;
9465;SDS011;4771;48.726;9.006;2023-05-29T16:07:16;4.43;;;3.33;;
9465;SDS011;4771;48.726;9.006;2023-05-29T16:09:43;4.57;;;2.88;;
9465;SDS011;4771;48.726;9.006;2023-05-29T16:12:11;6.93;;;4.05;;
9465;SDS011;4771;48.726;9.006;2023-05-29T16:14:39;3.40;;;2.90;;